Time;durP1;ratioP1;P1;durP2;ratioP2;P2;SDS_P1;SDS_P2;PMS_P1;PMS_P2;Temp;Humidity;BMP_temperature;BMP_pressure;BME280_temperature;BME280_humidity;BME280_pressure;Samples;Min_cycle;Max_cycle;Signal;HPM_P1;HPM_P2
2021/04/30 00:01:10;;;;;;;14.00;11.95;;;15.90;92.00;;;;;;5048466;28;20059;-63
2021/04/30 00:03:36;;;;;;;12.15;10.93;;;15.90;92.30;;;;;;5043635;28;20051;-62
2021/04/30 00:06:02;;;;;;;11.73;10.52;;;15.80;92.10;;;;;;5048413;28;20037;-63
2021/04/30 00:08:27;;;;;;;13.30;10.52;;;15.90;92.20;;;;;;5050025;28;20481;-63
2021/04/30 00:10:53;;;;;;;12.90;10.27;;;15.90;91.90;;;;;;5051031;28;20068;-63
2021/04/30 00:13:19;;;;;;;11.18;9.82;;;15.90;91.90;;;;;;5043297;28;20036;-63
2021/04/30 00:15:45;;;;;;;10.48;9.48;;;15.90;91.70;;;;;;5049167;28;20037;-63
2021/04/30 00:18:12;;;;;;;10.05;9.15;;;15.90;91.80;;;;;;5059099;28;20097;-63
2021/04/30 00:20:41;;;;;;;8.60;7.72;;;15.90;91.60;;;;;;5058771;28;20051;-63
2021/04/30 00:23:12;;;;;;;9.80;8.80;;;15.90;91.70;;;;;;5045743;28;20075;-64
2021/04/30 00:25:39;;;;;;;9.57;8.60;;;15.90;91.80;;;;;;5057318;28;20448;-63
2021/04/30 00:28:05;;;;;;;11.60;9.15;;;15.90;92.00;;;;;;5059344;28;20501;-63
2021/04/30 00:30:31;;;;;;;8.90;8.00;;;15.90;92.00;;;;;;5037627;28;20051;-64
2021/04/30 00:32:56;;;;;;;9.73;8.68;;;15.90;91.90;;;;;;5050009;28;20045;-63
2021/04/30 00:35:22;;;;;;;9.00;7.93;;;15.90;92.00;;;;;;5049028;28;20135;-63
2021/04/30 00:37:48;;;;;;;9.30;8.40;;;15.90;91.60;;;;;;5065449;28;20048;-63
2021/04/30 00:40:13;;;;;;;8.35;7.40;;;15.90;91.60;;;;;;5058834;28;20546;-63
2021/04/30 00:42:39;;;;;;;8.52;7.20;;;15.90;91.40;;;;;;5039619;28;20040;-64
2021/04/30 00:45:07;;;;;;;7.60;6.90;;;15.90;91.70;;;;;;5064155;28;20090;-64
2021/04/30 00:47:36;;;;;;;7.93;7.13;;;15.90;91.50;;;;;;5052320;28;20083;-64
2021/04/30 00:50:11;;;;;;;8.13;7.30;;;15.90;91.50;;;;;;5062047;28;20391;-64
2021/04/30 00:52:38;;;;;;;7.75;6.75;;;15.90;91.40;;;;;;5053031;28;20048;-64
2021/04/30 00:55:12;;;;;;;7.53;6.57;;;15.90;91.20;;;;;;5045879;28;20042;-64
2021/04/30 00:57:46;;;;;;;6.85;6.22;;;16.00;91.20;;;;;;5060643;28;20071;-64
2021/04/30 01:00:13;;;;;;;7.95;7.15;;;16.00;90.90;;;;;;5042198;28;20028;-64
2021/04/30 01:02:39;;;;;;;8.13;6.88;;;15.90;90.90;;;;;;5057561;28;20036;-64
2021/04/30 01:05:06;;;;;;;8.00;7.30;;;16.00;90.80;;;;;;5049280;28;20043;-64
2021/04/30 01:07:33;;;;;;;8.07;6.85;;;15.90;90.70;;;;;;5031906;28;20044;-63
2021/04/30 01:09:58;;;;;;;7.38;6.65;;;15.70;90.90;;;;;;5041245;28;20133;-64
2021/04/30 01:12:24;;;;;;;10.10;8.65;;;15.80;91.00;;;;;;5046718;28;20115;-64
2021/04/30 01:14:51;;;;;;;9.20;7.90;;;15.80;91.00;;;;;;5045542;28;20053;-63
2021/04/30 01:17:17;;;;;;;8.60;7.50;;;15.90;91.00;;;;;;5044322;28;20506;-64
2021/04/30 01:19:43;;;;;;;9.20;7.75;;;15.90;90.80;;;;;;5055993;28;20060;-64
2021/04/30 01:22:09;;;;;;;9.30;7.75;;;15.90;90.70;;;;;;5050177;28;20040;-64
2021/04/30 01:24:34;;;;;;;9.40;7.10;;;15.90;90.80;;;;;;5054254;28;20486;-64
2021/04/30 01:27:00;;;;;;;9.30;6.80;;;15.90;90.60;;;;;;5045491;28;20045;-64
2021/04/30 01:29:26;;;;;;;10.52;7.43;;;15.90;90.60;;;;;;5065516;28;20394;-63
2021/04/30 01:31:52;;;;;;;7.80;6.55;;;15.90;90.50;;;;;;5057617;28;20091;-63
2021/04/30 01:34:17;;;;;;;7.80;6.85;;;15.90;90.50;;;;;;5051698;28;20041;-64
2021/04/30 01:36:43;;;;;;;7.30;6.60;;;15.90;90.50;;;;;;5046248;28;20069;-63
2021/04/30 01:39:13;;;;;;;7.85;6.60;;;15.90;90.70;;;;;;5060421;28;20081;-63
2021/04/30 01:41:41;;;;;;;7.35;6.63;;;15.90;90.50;;;;;;5056140;28;20049;-63
2021/04/30 01:44:11;;;;;;;7.47;6.72;;;15.90;90.50;;;;;;5043358;28;20463;-63
2021/04/30 01:46:38;;;;;;;9.10;6.88;;;15.90;90.70;;;;;;5052182;28;20068;-64
2021/04/30 01:49:05;;;;;;;9.02;7.30;;;15.90;90.40;;;;;;5035421;28;20047;-64
2021/04/30 01:51:33;;;;;;;7.75;7.03;;;16.00;90.10;;;;;;5040443;28;20054;-64
2021/04/30 01:53:59;;;;;;;7.88;6.90;;;15.90;90.00;;;;;;5048298;28;20031;-64
2021/04/30 01:56:25;;;;;;;8.18;6.32;;;16.00;90.20;;;;;;5049020;28;22535;-63
2021/04/30 01:58:51;;;;;;;7.50;6.78;;;16.00;89.80;;;;;;5050794;28;20132;-64
2021/04/30 02:01:18;;;;;;;7.82;7.00;;;16.00;90.00;;;;;;5047511;28;20037;-64
2021/04/30 02:03:44;;;;;;;10.18;6.68;;;15.90;90.10;;;;;;5043018;28;20071;-64
2021/04/30 02:06:10;;;;;;;8.00;6.95;;;15.90;90.00;;;;;;5047876;28;20505;-64
2021/04/30 02:08:35;;;;;;;8.65;7.85;;;16.00;90.10;;;;;;5045968;28;20394;-64
2021/04/30 02:11:01;;;;;;;8.30;7.45;;;16.00;90.00;;;;;;5053535;28;20044;-64
2021/04/30 02:13:27;;;;;;;8.40;7.53;;;15.90;90.00;;;;;;5041382;28;20037;-64
2021/04/30 02:15:54;;;;;;;9.00;8.00;;;15.90;90.00;;;;;;5059980;28;20040;-64
2021/04/30 02:18:20;;;;;;;8.70;7.80;;;15.90;90.10;;;;;;5045769;28;20041;-63
2021/04/30 02:20:46;;;;;;;8.38;7.57;;;15.90;90.10;;;;;;5052090;28;20075;-63
2021/04/30 02:23:13;;;;;;;9.05;8.15;;;16.00;89.70;;;;;;5047164;28;20071;-63
2021/04/30 02:25:39;;;;;;;10.00;8.32;;;16.00;90.00;;;;;;5044667;28;20037;-62
2021/04/30 02:28:05;;;;;;;9.35;8.05;;;15.90;89.60;;;;;;5060744;28;20051;-63
2021/04/30 02:30:34;;;;;;;9.60;7.93;;;15.80;90.30;;;;;;5065696;28;20108;-63
2021/04/30 02:33:01;;;;;;;9.80;6.78;;;15.80;90.30;;;;;;5060899;28;20028;-61
2021/04/30 02:35:30;;;;;;;8.63;7.72;;;15.80;90.20;;;;;;5065993;28;20060;-62
2021/04/30 02:37:56;;;;;;;9.25;7.40;;;15.90;90.20;;;;;;5063874;28;20045;-62
2021/04/30 02:40:26;;;;;;;8.93;7.88;;;15.90;90.20;;;;;;5059402;28;20043;-62
2021/04/30 02:42:58;;;;;;;8.90;6.95;;;15.80;90.30;;;;;;5053249;28;20037;-62
2021/04/30 02:45:24;;;;;;;7.30;6.45;;;15.80;90.40;;;;;;5042842;28;20033;-63
2021/04/30 02:47:51;;;;;;;8.30;7.50;;;15.80;90.30;;;;;;5046741;28;20040;-63
2021/04/30 02:50:19;;;;;;;7.93;7.13;;;15.90;90.40;;;;;;5058355;28;20036;-63
2021/04/30 02:52:46;;;;;;;8.23;7.25;;;15.90;90.40;;;;;;5046393;28;20067;-63
2021/04/30 02:55:14;;;;;;;8.10;7.30;;;15.90;90.30;;;;;;5065530;28;20041;-63
2021/04/30 02:57:40;;;;;;;7.90;7.10;;;15.90;90.30;;;;;;5069444;28;20053;-63
2021/04/30 03:00:07;;;;;;;10.23;7.70;;;15.90;90.30;;;;;;5052292;28;20487;-64
2021/04/30 03:02:33;;;;;;;8.98;7.28;;;15.70;90.20;;;;;;5068080;28;20036;-63
2021/04/30 03:04:59;;;;;;;8.32;7.45;;;15.80;90.40;;;;;;5065471;28;20051;-64
2021/04/30 03:07:24;;;;;;;7.50;6.80;;;15.90;90.40;;;;;;5070347;28;20036;-63
2021/04/30 03:09:50;;;;;;;10.07;7.35;;;15.80;90.10;;;;;;5062754;28;20041;-63
2021/04/30 03:12:16;;;;;;;7.22;6.60;;;15.80;90.30;;;;;;5047634;28;20072;-63
2021/04/30 03:14:41;;;;;;;7.60;6.80;;;15.90;90.30;;;;;;5031378;28;20398;-63
2021/04/30 03:17:07;;;;;;;7.72;6.80;;;15.80;90.10;;;;;;5051477;28;20036;-63
2021/04/30 03:19:33;;;;;;;9.00;6.07;;;15.90;90.00;;;;;;5052368;28;20089;-64
2021/04/30 03:21:59;;;;;;;7.72;6.68;;;15.80;90.10;;;;;;5049470;28;20482;-64
2021/04/30 03:24:24;;;;;;;7.65;6.95;;;15.80;89.80;;;;;;5051981;28;20487;-63
2021/04/30 03:26:50;;;;;;;8.27;7.47;;;15.90;89.80;;;;;;5048836;28;20146;-63
2021/04/30 03:29:16;;;;;;;9.05;7.45;;;15.80;90.00;;;;;;5042052;28;20029;-63
2021/04/30 03:31:42;;;;;;;7.60;6.75;;;15.90;89.50;;;;;;5045274;28;20495;-63
2021/04/30 03:34:07;;;;;;;8.32;7.07;;;15.80;89.80;;;;;;5057706;28;20396;-63
2021/04/30 03:36:33;;;;;;;8.13;7.15;;;15.80;90.00;;;;;;5044768;28;20510;-64
2021/04/30 03:39:02;;;;;;;8.23;7.38;;;15.80;90.00;;;;;;5050523;28;20051;-64
2021/04/30 03:41:29;;;;;;;8.48;7.32;;;15.80;89.30;;;;;;5051838;28;20031;-64
2021/04/30 03:43:54;;;;;;;8.40;7.60;;;15.80;89.60;;;;;;5061501;28;20040;-64
2021/04/30 03:46:20;;;;;;;8.02;6.75;;;15.80;89.60;;;;;;5064395;28;20082;-64
2021/04/30 03:48:46;;;;;;;7.88;7.18;;;15.80;89.20;;;;;;5055000;28;20037;-64
2021/04/30 03:51:12;;;;;;;7.75;6.95;;;15.80;89.20;;;;;;5052921;28;20044;-64
2021/04/30 03:53:37;;;;;;;9.23;7.70;;;15.80;88.90;;;;;;5057875;28;20099;-64
2021/04/30 03:56:03;;;;;;;7.68;6.97;;;15.80;89.70;;;;;;5064060;28;20033;-64
2021/04/30 03:58:29;;;;;;;7.80;7.10;;;15.80;89.60;;;;;;5043513;28;20574;-64
2021/04/30 04:00:55;;;;;;;8.13;6.93;;;15.80;89.90;;;;;;5052401;28;20041;-62
2021/04/30 04:03:20;;;;;;;8.38;7.32;;;15.80;89.70;;;;;;5041261;28;20045;-63
2021/04/30 04:05:46;;;;;;;8.95;8.13;;;15.80;89.40;;;;;;5054751;28;20049;-63
2021/04/30 04:08:11;;;;;;;9.07;8.18;;;15.90;89.40;;;;;;5053619;28;20029;-63
2021/04/30 04:10:38;;;;;;;8.50;7.68;;;15.80;89.40;;;;;;5054506;28;20037;-62
2021/04/30 04:13:17;;;;;;;7.82;7.13;;;15.90;89.90;;;;;;5043223;28;20030;-62
2021/04/30 04:15:46;;;;;;;7.47;6.60;;;15.80;89.40;;;;;;5050820;28;20148;-62
2021/04/30 04:18:12;;;;;;;7.32;6.68;;;15.80;89.70;;;;;;5050843;28;20100;-63
2021/04/30 04:20:38;;;;;;;7.88;6.82;;;15.80;89.20;;;;;;5055260;28;20075;-63
2021/04/30 04:23:06;;;;;;;7.28;6.60;;;15.80;88.50;;;;;;5054029;28;20127;-64
2021/04/30 04:25:31;;;;;;;7.47;6.78;;;15.80;88.40;;;;;;5057154;28;20044;-64
2021/04/30 04:27:57;;;;;;;8.43;7.07;;;15.80;88.50;;;;;;5045686;28;20095;-64
2021/04/30 04:30:24;;;;;;;7.53;6.78;;;15.80;88.60;;;;;;5054134;28;20108;-63
2021/04/30 04:32:50;;;;;;;7.10;6.43;;;15.80;88.70;;;;;;5057622;28;20562;-63
2021/04/30 04:35:16;;;;;;;8.98;7.32;;;15.80;88.40;;;;;;5058960;28;20036;-64
2021/04/30 04:37:42;;;;;;;7.50;6.68;;;15.80;88.50;;;;;;5049169;28;20057;-63
2021/04/30 04:40:08;;;;;;;10.57;7.00;;;15.80;88.80;;;;;;5048522;28;20520;-64
2021/04/30 04:42:34;;;;;;;8.27;7.45;;;15.70;89.00;;;;;;5051432;28;20032;-63
2021/04/30 04:45:00;;;;;;;8.10;6.88;;;15.80;88.90;;;;;;5063572;28;20037;-63
2021/04/30 04:47:25;;;;;;;7.85;7.03;;;15.80;88.80;;;;;;5046937;28;20114;-64
2021/04/30 04:49:51;;;;;;;10.60;7.47;;;15.80;88.50;;;;;;5043257;28;20051;-63
2021/04/30 04:52:17;;;;;;;6.82;6.13;;;15.90;88.30;;;;;;5063645;28;20035;-62
2021/04/30 04:54:42;;;;;;;7.20;6.55;;;15.80;88.80;;;;;;5047494;28;20033;-63
2021/04/30 04:57:08;;;;;;;7.70;6.45;;;15.70;88.40;;;;;;5050705;28;20056;-63
2021/04/30 04:59:34;;;;;;;7.35;6.15;;;15.80;88.50;;;;;;5046765;28;20113;-64
2021/04/30 05:01:59;;;;;;;7.40;6.70;;;15.80;88.10;;;;;;5046311;28;20116;-63
2021/04/30 05:04:25;;;;;;;10.73;6.80;;;15.80;88.10;;;;;;5032849;28;20044;-63
2021/04/30 05:06:51;;;;;;;7.57;6.50;;;15.80;88.30;;;;;;5050597;28;20235;-63
2021/04/30 05:09:16;;;;;;;7.45;5.25;;;15.90;88.40;;;;;;5043567;28;20210;-63
2021/04/30 05:11:42;;;;;;;9.93;5.97;;;15.80;88.30;;;;;;5048094;28;20024;-63
2021/04/30 05:14:08;;;;;;;7.70;5.95;;;15.80;88.00;;;;;;5053450;28;20033;-63
2021/04/30 05:16:33;;;;;;;10.73;5.82;;;15.80;88.10;;;;;;5060240;28;20343;-63
2021/04/30 05:18:59;;;;;;;7.68;5.35;;;15.80;87.50;;;;;;5054466;28;20032;-63
2021/04/30 05:21:25;;;;;;;5.10;4.38;;;15.70;87.50;;;;;;5048085;28;20079;-63
2021/04/30 05:23:52;;;;;;;7.15;4.63;;;15.70;87.80;;;;;;5035021;28;20045;-63
2021/04/30 05:26:17;;;;;;;6.32;5.18;;;15.80;87.70;;;;;;5049967;28;20103;-63
2021/04/30 05:28:43;;;;;;;6.85;5.35;;;15.80;87.50;;;;;;5063955;28;20072;-63
2021/04/30 05:31:08;;;;;;;5.72;4.78;;;15.80;87.50;;;;;;5060817;28;20115;-63
2021/04/30 05:33:34;;;;;;;8.88;5.90;;;15.80;88.50;;;;;;5064935;28;20127;-64
2021/04/30 05:36:00;;;;;;;12.20;6.13;;;15.90;88.90;;;;;;5053310;28;20045;-63
2021/04/30 05:38:25;;;;;;;9.15;6.32;;;15.90;89.40;;;;;;5047271;28;20060;-63
2021/04/30 05:40:51;;;;;;;6.75;5.43;;;15.80;89.50;;;;;;5049167;28;20110;-63
2021/04/30 05:43:17;;;;;;;7.57;6.05;;;15.90;89.30;;;;;;5058801;28;20044;-63
2021/04/30 05:45:45;;;;;;;7.00;5.95;;;15.90;89.70;;;;;;5046931;28;20379;-63
2021/04/30 05:48:11;;;;;;;7.65;5.80;;;15.90;89.60;;;;;;5043774;28;20048;-63
2021/04/30 05:50:37;;;;;;;9.52;5.80;;;15.80;90.00;;;;;;5046760;28;20040;-63
2021/04/30 05:53:02;;;;;;;11.05;5.93;;;15.90;90.00;;;;;;5029577;28;20681;-64
2021/04/30 05:55:29;;;;;;;5.43;4.90;;;16.00;90.00;;;;;;5049102;28;20036;-62
2021/04/30 05:57:54;;;;;;;9.25;6.00;;;15.80;89.80;;;;;;5042445;28;20045;-63
2021/04/30 06:00:20;;;;;;;5.22;4.72;;;15.80;90.10;;;;;;5048933;28;20035;-62
2021/04/30 06:02:47;;;;;;;6.93;5.45;;;15.90;90.10;;;;;;5026787;28;20029;-63
2021/04/30 06:05:13;;;;;;;7.03;5.72;;;15.80;90.20;;;;;;5064694;28;20037;-63
2021/04/30 06:07:39;;;;;;;11.27;6.40;;;15.80;90.20;;;;;;5058126;28;20039;-63
2021/04/30 06:10:06;;;;;;;13.23;6.35;;;15.90;90.20;;;;;;5044921;28;20039;-63
2021/04/30 06:12:31;;;;;;;11.10;6.40;;;15.80;90.30;;;;;;5033662;28;20079;-63
2021/04/30 06:14:57;;;;;;;12.35;6.95;;;16.00;90.20;;;;;;5061797;28;20486;-63
2021/04/30 06:17:24;;;;;;;7.70;6.95;;;16.10;90.10;;;;;;5032152;28;20045;-63
2021/04/30 06:19:50;;;;;;;7.47;6.72;;;16.10;90.00;;;;;;5064953;28;20064;-62
2021/04/30 06:22:16;;;;;;;9.30;6.97;;;16.10;90.10;;;;;;5056548;28;20072;-62
2021/04/30 06:24:41;;;;;;;8.63;7.07;;;16.10;90.00;;;;;;5062880;28;20047;-63
2021/04/30 06:27:07;;;;;;;9.43;7.43;;;16.20;89.80;;;;;;5044680;28;20047;-64
2021/04/30 06:29:32;;;;;;;8.95;8.05;;;16.30;89.70;;;;;;5044699;28;20037;-63
2021/04/30 06:31:58;;;;;;;8.60;6.47;;;16.30;89.80;;;;;;5052358;28;20125;-63
2021/04/30 06:34:25;;;;;;;8.95;7.95;;;16.30;89.00;;;;;;5032430;28;22990;-63
2021/04/30 06:36:54;;;;;;;11.55;8.07;;;16.40;89.30;;;;;;5067988;28;20554;-65
2021/04/30 06:39:21;;;;;;;10.63;8.43;;;16.40;89.40;;;;;;5062448;28;20041;-64
2021/04/30 06:41:46;;;;;;;13.80;8.40;;;16.40;89.20;;;;;;5067893;28;20052;-65
2021/04/30 06:44:13;;;;;;;15.05;8.38;;;16.40;89.10;;;;;;5059700;28;20498;-65
2021/04/30 06:46:39;;;;;;;11.95;7.70;;;16.40;88.60;;;;;;5042319;28;20086;-64
2021/04/30 06:49:05;;;;;;;12.43;9.70;;;16.40;88.30;;;;;;5023610;28;20029;-65
2021/04/30 06:51:30;;;;;;;10.18;8.15;;;16.40;88.70;;;;;;5034643;28;20112;-64
2021/04/30 06:53:56;;;;;;;10.68;8.45;;;16.40;88.60;;;;;;5053523;28;20123;-65
2021/04/30 06:56:25;;;;;;;9.00;7.60;;;16.40;87.80;;;;;;5057373;28;20032;-64
2021/04/30 06:58:51;;;;;;;14.57;8.38;;;16.50;86.90;;;;;;5051751;28;20046;-65
2021/04/30 07:01:18;;;;;;;12.50;8.85;;;16.70;87.10;;;;;;5061512;28;20051;-65
2021/04/30 07:03:46;;;;;;;10.68;8.57;;;16.70;87.20;;;;;;5054786;28;20041;-64
2021/04/30 07:06:15;;;;;;;11.82;9.80;;;16.80;87.10;;;;;;5046377;28;20087;-64
2021/04/30 07:08:41;;;;;;;11.02;9.93;;;16.70;87.10;;;;;;5043222;28;20491;-62
2021/04/30 07:11:08;;;;;;;12.85;10.30;;;16.70;86.90;;;;;;5047614;28;20040;-64
2021/04/30 07:13:35;;;;;;;15.25;10.50;;;16.70;86.70;;;;;;5063742;28;20048;-64
2021/04/30 07:16:02;;;;;;;15.20;11.05;;;16.80;87.10;;;;;;5057054;28;20075;-64
2021/04/30 07:18:27;;;;;;;14.80;10.85;;;16.80;87.70;;;;;;5060316;28;20063;-64
2021/04/30 07:20:54;;;;;;;14.55;10.30;;;16.80;86.70;;;;;;5051611;28;20854;-64
2021/04/30 07:23:19;;;;;;;14.13;11.13;;;16.70;86.80;;;;;;5056171;28;20029;-64
2021/04/30 07:25:45;;;;;;;17.55;13.35;;;16.90;87.00;;;;;;5045610;28;20044;-63
2021/04/30 07:28:11;;;;;;;13.27;11.85;;;16.90;86.40;;;;;;5042739;28;20117;-64
2021/04/30 07:30:36;;;;;;;15.43;12.88;;;16.90;86.60;;;;;;5042468;28;20040;-64
2021/04/30 07:33:02;;;;;;;13.70;12.40;;;16.80;86.70;;;;;;5042224;28;20044;-63
2021/04/30 07:35:28;;;;;;;13.27;11.32;;;16.70;86.80;;;;;;5027799;28;20041;-63
2021/04/30 07:37:54;;;;;;;26.98;12.85;;;16.80;86.80;;;;;;5038241;28;20095;-62
2021/04/30 07:40:19;;;;;;;16.67;12.73;;;16.70;87.60;;;;;;5033958;28;20056;-63
2021/04/30 07:42:45;;;;;;;14.20;11.32;;;16.70;87.80;;;;;;5052915;28;20037;-63
2021/04/30 07:45:11;;;;;;;12.93;11.43;;;16.80;86.80;;;;;;5044878;28;20055;-63
2021/04/30 07:47:37;;;;;;;14.70;11.55;;;16.70;86.50;;;;;;5047239;28;20138;-63
2021/04/30 07:50:05;;;;;;;13.18;11.85;;;16.80;86.60;;;;;;5041392;28;20064;-63
2021/04/30 07:52:31;;;;;;;13.52;12.23;;;16.80;86.70;;;;;;5025119;28;20477;-63
2021/04/30 07:54:57;;;;;;;14.23;12.60;;;16.80;86.70;;;;;;5030219;28;20494;-63
2021/04/30 07:57:23;;;;;;;15.27;12.15;;;16.80;87.10;;;;;;5051553;28;20128;-63
2021/04/30 07:59:48;;;;;;;15.07;13.10;;;16.80;86.80;;;;;;5048937;28;20032;-63
2021/04/30 08:02:14;;;;;;;14.63;12.30;;;16.80;86.70;;;;;;5046254;28;20032;-64
2021/04/30 08:04:40;;;;;;;16.33;13.57;;;16.80;86.50;;;;;;5056319;28;20029;-63
2021/04/30 08:07:05;;;;;;;14.18;11.82;;;16.80;86.20;;;;;;5044281;28;20498;-63
2021/04/30 08:09:31;;;;;;;22.42;12.38;;;16.90;86.50;;;;;;5055321;28;20029;-63
2021/04/30 08:11:57;;;;;;;14.70;11.43;;;17.00;86.10;;;;;;5039563;28;20121;-63
2021/04/30 08:14:22;;;;;;;16.70;11.93;;;17.00;85.60;;;;;;5056195;28;20069;-63
2021/04/30 08:16:48;;;;;;;14.32;12.45;;;17.00;85.60;;;;;;5029488;28;20041;-64
2021/04/30 08:19:14;;;;;;;14.43;13.00;;;17.10;85.80;;;;;;5045810;28;20071;-64
2021/04/30 08:21:40;;;;;;;16.70;13.27;;;17.10;85.90;;;;;;5041913;28;20127;-64
2021/04/30 08:24:06;;;;;;;14.77;12.60;;;17.20;85.90;;;;;;5049034;28;20087;-64
2021/04/30 08:26:31;;;;;;;18.42;13.32;;;17.00;86.20;;;;;;5063454;28;20040;-64
2021/04/30 08:28:58;;;;;;;16.67;14.82;;;17.00;86.10;;;;;;5050481;28;20041;-64
2021/04/30 08:31:26;;;;;;;16.02;14.23;;;17.10;86.30;;;;;;5048734;28;20124;-64
2021/04/30 08:33:52;;;;;;;17.25;12.95;;;17.00;86.30;;;;;;5049136;28;20409;-64
2021/04/30 08:36:17;;;;;;;21.10;15.13;;;17.00;86.60;;;;;;5045979;28;20033;-64
2021/04/30 08:38:43;;;;;;;19.95;14.98;;;17.10;86.50;;;;;;5045141;28;20542;-64
2021/04/30 08:41:10;;;;;;;18.92;16.33;;;17.10;86.50;;;;;;5047553;28;20029;-64
2021/04/30 08:43:40;;;;;;;20.13;16.88;;;17.20;86.10;;;;;;5032857;28;20558;-64
2021/04/30 08:46:06;;;;;;;18.92;15.95;;;17.20;85.40;;;;;;5053026;28;20077;-64
2021/04/30 08:48:33;;;;;;;23.60;17.58;;;17.30;85.00;;;;;;5056518;28;20406;-64
2021/04/30 08:51:00;;;;;;;20.05;17.15;;;17.30;84.90;;;;;;5059216;28;20049;-64
2021/04/30 08:53:27;;;;;;;22.45;17.63;;;17.40;84.60;;;;;;5056498;28;20040;-64
2021/04/30 08:55:53;;;;;;;21.38;16.05;;;17.40;84.90;;;;;;5050491;28;20094;-64
2021/04/30 08:58:26;;;;;;;19.70;15.95;;;17.50;84.40;;;;;;5045238;28;20095;-64
2021/04/30 09:00:52;;;;;;;19.55;17.23;;;17.60;83.60;;;;;;5052382;28;20134;-63
2021/04/30 09:03:18;;;;;;;20.45;16.45;;;17.70;83.40;;;;;;5054084;28;20033;-63
2021/04/30 09:05:49;;;;;;;23.50;17.00;;;17.70;83.50;;;;;;5055411;28;20153;-63
2021/04/30 09:08:17;;;;;;;21.02;17.45;;;17.80;82.90;;;;;;5062482;28;20048;-62
2021/04/30 09:10:48;;;;;;;20.38;16.42;;;17.80;82.90;;;;;;5042797;28;20048;-63
2021/04/30 09:13:16;;;;;;;18.02;15.68;;;17.80;83.10;;;;;;5054186;28;20063;-63
2021/04/30 09:15:44;;;;;;;18.80;16.80;;;17.90;82.70;;;;;;5047765;28;20576;-63
2021/04/30 09:18:17;;;;;;;17.92;16.02;;;17.90;82.70;;;;;;5048407;28;20060;-63
2021/04/30 09:20:44;;;;;;;18.63;15.70;;;17.90;81.60;;;;;;5049323;28;20124;-63
2021/04/30 09:23:37;;;;;;;17.60;15.70;;;17.80;81.60;;;;;;5051688;28;20044;-64
2021/04/30 09:26:27;;;;;;;17.25;15.20;;;17.90;81.00;;;;;;5054948;28;20132;-63
2021/04/30 09:29:09;;;;;;;17.85;15.30;;;17.80;81.30;;;;;;5041939;28;20128;-63
2021/04/30 09:31:38;;;;;;;19.10;16.52;;;17.90;81.10;;;;;;5039827;28;20049;-63
2021/04/30 09:34:17;;;;;;;18.42;15.88;;;17.90;80.80;;;;;;5037756;28;20091;-63
2021/04/30 09:37:14;;;;;;;21.70;16.05;;;17.90;81.60;;;;;;5023507;28;20044;-63
2021/04/30 09:40:01;;;;;;;16.83;14.98;;;17.80;80.20;;;;;;5042245;28;20033;-63
2021/04/30 09:42:32;;;;;;;20.95;18.75;;;17.70;82.10;;;;;;5063895;28;20040;-62
2021/04/30 09:45:05;;;;;;;17.63;15.60;;;17.70;82.50;;;;;;5058986;28;20139;-63
2021/04/30 09:47:35;;;;;;;18.50;15.60;;;17.80;82.50;;;;;;5055291;28;20486;-64
2021/04/30 09:50:21;;;;;;;17.58;14.75;;;17.90;81.70;;;;;;5051795;28;20071;-62
2021/04/30 09:52:55;;;;;;;18.95;14.60;;;17.90;81.60;;;;;;5000992;28;20045;-63
2021/04/30 09:55:21;;;;;;;16.77;15.03;;;17.90;80.80;;;;;;5048757;28;20046;-63
2021/04/30 09:57:49;;;;;;;16.75;14.27;;;18.00;81.20;;;;;;5054363;28;20088;-62
2021/04/30 10:00:15;;;;;;;16.58;13.98;;;18.10;80.50;;;;;;5032144;28;20044;-63
2021/04/30 10:02:42;;;;;;;16.17;12.63;;;18.20;79.70;;;;;;5043413;28;20036;-64
2021/04/30 10:05:21;;;;;;;15.43;13.30;;;18.10;78.70;;;;;;5045919;28;20398;-64
2021/04/30 10:07:47;;;;;;;14.55;13.02;;;18.20;79.10;;;;;;5041582;28;20076;-63
2021/04/30 10:10:24;;;;;;;14.32;12.82;;;18.20;79.00;;;;;;5052711;28;20045;-64
2021/04/30 10:12:55;;;;;;;13.98;12.57;;;18.20;77.90;;;;;;5041410;28;20107;-63
2021/04/30 10:15:21;;;;;;;13.85;12.43;;;18.30;78.30;;;;;;5057309;28;20041;-63
2021/04/30 10:17:57;;;;;;;12.75;11.55;;;18.30;77.00;;;;;;5051505;28;20052;-63
2021/04/30 10:20:23;;;;;;;11.73;10.27;;;18.30;77.00;;;;;;5044091;28;20029;-63
2021/04/30 10:22:50;;;;;;;11.15;8.98;;;18.30;77.70;;;;;;5051559;28;20130;-63
2021/04/30 10:25:18;;;;;;;9.00;7.78;;;18.30;77.50;;;;;;5059572;28;20070;-63
2021/04/30 10:27:47;;;;;;;8.40;6.75;;;18.30;77.30;;;;;;5042043;28;20155;-63
2021/04/30 10:30:32;;;;;;;7.78;7.00;;;18.20;76.90;;;;;;5048029;28;20044;-63
2021/04/30 10:33:15;;;;;;;7.10;6.40;;;18.30;77.10;;;;;;5042793;28;20037;-63
2021/04/30 10:35:48;;;;;;;5.90;5.30;;;18.40;76.60;;;;;;5043625;28;20575;-64
2021/04/30 10:38:16;;;;;;;5.20;4.72;;;18.30;76.40;;;;;;5050907;28;21007;-63
2021/04/30 10:41:01;;;;;;;5.15;4.65;;;18.20;77.00;;;;;;5045319;28;20124;-64
2021/04/30 10:43:27;;;;;;;;;;;18.30;76.80;;;;;;5057971;28;20044;-63
2021/04/30 10:46:12;;;;;;;4.65;4.25;;;18.10;76.00;;;;;;5055433;28;19913;-63
2021/04/30 10:49:04;;;;;;;5.93;5.20;;;18.10;76.10;;;;;;5034330;28;20047;-63
2021/04/30 10:51:34;;;;;;;5.53;4.57;;;18.40;75.00;;;;;;5003186;28;20048;-63
2021/04/30 10:54:27;;;;;;;5.88;5.38;;;18.40;75.70;;;;;;5057759;28;20041;-63
2021/04/30 10:57:02;;;;;;;8.48;6.28;;;18.60;73.50;;;;;;5025927;28;20053;-63
2021/04/30 10:59:37;;;;;;;8.60;5.75;;;18.70;74.90;;;;;;5052223;28;23405;-62
2021/04/30 11:02:29;;;;;;;6.03;5.53;;;18.90;73.90;;;;;;5024908;28;20029;-62
2021/04/30 11:05:04;;;;;;;6.55;5.95;;;;;;;;;;4987513;28;20041;-63
2021/04/30 11:07:36;;;;;;;7.43;6.75;;;19.20;72.00;;;;;;5041348;28;20135;-63
2021/04/30 11:10:20;;;;;;;6.95;6.45;;;19.00;73.60;;;;;;5054142;28;20037;-63
2021/04/30 11:13:04;;;;;;;5.97;5.45;;;19.30;73.10;;;;;;5009443;28;20032;-63
2021/04/30 11:15:31;;;;;;;6.80;6.10;;;19.30;72.70;;;;;;5049610;28;20047;-62
2021/04/30 11:18:01;;;;;;;9.75;6.95;;;19.30;73.00;;;;;;5055744;28;20041;-61
2021/04/30 11:20:28;;;;;;;8.38;6.60;;;;;;;;;;5054403;28;20035;-63
2021/04/30 11:23:13;;;;;;;8.88;7.85;;;20.00;71.30;;;;;;5055919;28;20029;-62
2021/04/30 11:28:42;;;;;;;8.57;7.40;;;20.10;73.50;;;;;;5051678;28;20573;-61
2021/04/30 11:31:29;;;;;;;7.75;6.95;;;19.90;70.80;;;;;;5054257;28;20880;-61
2021/04/30 11:34:12;;;;;;;8.52;7.57;;;19.60;71.50;;;;;;4996974;28;20055;-61
2021/04/30 11:36:39;;;;;;;7.90;6.85;;;19.50;71.20;;;;;;5048064;28;20060;-61
2021/04/30 11:39:15;;;;;;;8.68;7.07;;;19.40;72.70;;;;;;5046081;28;20045;-61
2021/04/30 11:41:42;;;;;;;7.40;6.70;;;19.30;72.30;;;;;;5061841;28;20040;-62
2021/04/30 11:44:08;;;;;;;7.82;7.03;;;19.30;72.10;;;;;;5025640;28;20506;-61
2021/04/30 11:46:34;;;;;;;7.95;6.30;;;19.40;73.00;;;;;;5056267;28;20032;-60
2021/04/30 11:49:02;;;;;;;8.15;5.78;;;19.60;72.90;;;;;;5053298;28;20383;-60
2021/04/30 11:51:31;;;;;;;7.20;6.10;;;19.60;73.80;;;;;;5042881;28;20492;-61
2021/04/30 11:53:59;;;;;;;5.90;4.65;;;19.70;73.60;;;;;;5054732;28;20036;-60
2021/04/30 11:56:31;;;;;;;4.53;4.13;;;19.80;69.10;;;;;;5059127;28;20075;-61
2021/04/30 11:58:57;;;;;;;5.20;4.68;;;19.90;70.30;;;;;;5054635;28;20052;-60
2021/04/30 12:01:28;;;;;;;5.43;4.05;;;19.90;70.50;;;;;;5059482;28;20044;-61
2021/04/30 12:03:55;;;;;;;4.75;4.15;;;20.00;70.10;;;;;;5063957;28;20079;-61
2021/04/30 12:06:27;;;;;;;3.92;3.53;;;20.00;70.60;;;;;;5061583;28;20043;-60
2021/04/30 12:08:57;;;;;;;4.65;2.95;;;19.90;69.00;;;;;;5063563;28;20551;-61
2021/04/30 12:11:34;;;;;;;3.42;3.13;;;19.70;70.00;;;;;;5061190;28;20044;-60
2021/04/30 12:14:05;;;;;;;4.95;3.65;;;19.60;69.10;;;;;;5039947;28;24319;-60
2021/04/30 12:16:31;;;;;;;5.25;4.75;;;19.60;68.60;;;;;;5035429;28;20079;-60
2021/04/30 12:18:59;;;;;;;5.28;4.78;;;19.40;68.70;;;;;;5037267;28;20083;-60
2021/04/30 12:21:28;;;;;;;7.30;5.28;;;19.40;69.80;;;;;;5044026;28;20135;-60
2021/04/30 12:23:55;;;;;;;6.97;5.63;;;19.50;69.90;;;;;;5045170;28;20112;-61
2021/04/30 12:26:29;;;;;;;7.55;6.25;;;19.70;70.20;;;;;;5040910;28;20047;-60
2021/04/30 12:28:56;;;;;;;10.43;6.05;;;19.70;70.30;;;;;;5047396;28;20040;-60
2021/04/30 12:31:23;;;;;;;7.82;5.78;;;19.90;70.90;;;;;;5032484;28;20047;-60
2021/04/30 12:33:51;;;;;;;15.77;7.55;;;19.90;70.00;;;;;;5049518;28;20045;-60
2021/04/30 12:36:22;;;;;;;11.73;7.03;;;19.90;72.00;;;;;;5042994;28;20119;-60
2021/04/30 12:38:53;;;;;;;9.73;6.47;;;19.80;72.10;;;;;;5047257;28;20395;-60
2021/04/30 12:41:27;;;;;;;7.32;6.53;;;19.80;72.80;;;;;;5042365;28;20048;-61
2021/04/30 12:43:55;;;;;;;7.20;6.10;;;20.00;71.60;;;;;;5042315;28;20056;-60
2021/04/30 12:46:26;;;;;;;7.65;6.95;;;20.60;69.80;;;;;;5046230;28;20056;-60
2021/04/30 12:48:55;;;;;;;7.88;6.57;;;21.00;64.80;;;;;;5038032;28;20514;-60